Time;durP1;ratioP1;P1;durP2;ratioP2;P2;SDS_P1;SDS_P2;PMS_P1;PMS_P2;Temp;Humidity;BMP_temperature;BMP_pressure;BME280_temperature;BME280_humidity;BME280_pressure;Samples;Min_cycle;Max_cycle;Signal;HPM_P1;HPM_P2
2023/09/16 00:01:38;;;;;;;21.93;12.53;;;;;;;;;;10423416;28;20578;-74
2023/09/16 00:06:38;;;;;;;19.00;12.45;;;;;;;;;;10409042;28;20021;-74
2023/09/16 00:11:38;;;;;;;20.67;13.27;;;;;;;;;;10403211;28;20536;-76
2023/09/16 00:16:40;;;;;;;22.85;13.73;;;;;;;;;;10421309;28;20032;-75
2023/09/16 00:21:42;;;;;;;25.20;14.35;;;;;;;;;;10426997;28;20028;-80
2023/09/16 00:26:42;;;;;;;25.52;15.10;;;;;;;;;;10408291;28;20743;-81
2023/09/16 00:31:44;;;;;;;23.92;14.38;;;;;;;;;;10428746;28;20043;-78
2023/09/16 00:36:44;;;;;;;26.90;14.50;;;;;;;;;;10426615;28;20039;-72
2023/09/16 00:41:44;;;;;;;25.23;14.52;;;;;;;;;;10444238;28;20051;-79
2023/09/16 00:46:44;;;;;;;21.20;13.80;;;;;;;;;;10442650;28;20489;-80
2023/09/16 00:51:45;;;;;;;17.92;13.55;;;;;;;;;;10427558;28;20572;-79
2023/09/16 00:56:46;;;;;;;25.38;15.38;;;;;;;;;;10446176;28;20021;-80
2023/09/16 01:01:50;;;;;;;19.40;13.95;;;;;;;;;;10427544;28;20481;-80
2023/09/16 01:06:51;;;;;;;29.27;16.40;;;;;;;;;;10427410;28;20017;-77
2023/09/16 01:11:52;;;;;;;21.17;12.98;;;;;;;;;;10426547;28;20049;-79
2023/09/16 01:16:59;;;;;;;23.05;13.35;;;;;;;;;;10443891;28;20033;-75
2023/09/16 01:21:59;;;;;;;23.45;13.73;;;;;;;;;;10425547;28;20394;-75
2023/09/16 01:26:59;;;;;;;21.58;13.82;;;;;;;;;;10443426;28;20033;-78
2023/09/16 01:32:04;;;;;;;21.92;14.80;;;;;;;;;;10428227;28;20171;-78
2023/09/16 01:37:06;;;;;;;24.85;14.70;;;;;;;;;;10426450;28;20021;-75
2023/09/16 01:42:08;;;;;;;21.67;14.23;;;;;;;;;;10442644;28;20040;-75
2023/09/16 01:47:08;;;;;;;19.38;13.82;;;;;;;;;;10425194;28;20059;-80
2023/09/16 01:52:08;;;;;;;23.40;15.18;;;;;;;;;;10426306;28;20115;-81
2023/09/16 01:57:08;;;;;;;22.13;15.13;;;;;;;;;;10436224;28;20536;-77
2023/09/16 02:02:11;;;;;;;22.52;14.88;;;;;;;;;;10450951;28;20025;-79
2023/09/16 02:07:23;;;;;;;27.58;15.20;;;;;;;;;;10436364;28;20013;-72
2023/09/16 02:12:24;;;;;;;25.63;16.15;;;;;;;;;;10433943;28;20045;-76
2023/09/16 02:17:28;;;;;;;22.33;15.98;;;;;;;;;;10431734;28;20451;-79
2023/09/16 02:22:28;;;;;;;19.65;14.77;;;;;;;;;;10431483;28;20025;-78
2023/09/16 02:27:54;;;;;;;28.80;14.82;;;;;;;;;;10441076;28;20487;-75
2023/09/16 02:32:54;;;;;;;19.38;13.70;;;;;;;;;;10451918;28;20029;-75
2023/09/16 02:37:55;;;;;;;21.60;15.35;;;;;;;;;;10422518;28;20628;-78
2023/09/16 02:42:56;;;;;;;22.58;16.35;;;;;;;;;;10429625;28;20420;-71
2023/09/16 02:47:56;;;;;;;24.52;15.30;;;;;;;;;;10402473;28;20136;-80
2023/09/16 02:52:56;;;;;;;23.45;15.27;;;;;;;;;;10451629;28;20032;-80
2023/09/16 02:58:00;;;;;;;24.77;14.82;;;;;;;;;;10452142;28;20058;-83
2023/09/16 03:03:02;;;;;;;26.90;15.20;;;;;;;;;;10417904;28;20055;-76
2023/09/16 03:08:04;;;;;;;26.25;16.20;;;;;;;;;;10399663;28;20028;-80
2023/09/16 03:13:04;;;;;;;25.35;17.10;;;;;;;;;;10442388;28;20052;-73
2023/09/16 03:18:05;;;;;;;26.88;16.50;;;;;;;;;;10452075;28;20440;-78
2023/09/16 03:23:05;;;;;;;22.35;16.75;;;;;;;;;;10431301;28;20483;-75
2023/09/16 03:28:07;;;;;;;33.15;17.92;;;;;;;;;;10417092;28;20021;-80
2023/09/16 03:33:08;;;;;;;28.38;17.70;;;;;;;;;;10400268;28;20017;-76
2023/09/16 03:38:09;;;;;;;25.40;17.02;;;;;;;;;;10432379;28;20021;-77
2023/09/16 03:43:10;;;;;;;34.40;17.77;;;;;;;;;;10414470;28;20024;-75
2023/09/16 03:48:11;;;;;;;32.47;18.00;;;;;;;;;;10429200;28;20519;-76
2023/09/16 03:53:12;;;;;;;25.30;17.77;;;;;;;;;;10447672;28;20112;-78
2023/09/16 03:58:12;;;;;;;27.35;17.23;;;;;;;;;;10416754;28;20084;-73
2023/09/16 04:03:23;;;;;;;28.00;16.20;;;;;;;;;;10440814;28;20467;-79
2023/09/16 04:08:25;;;;;;;29.20;18.55;;;;;;;;;;10441878;28;20759;-80
2023/09/16 04:13:26;;;;;;;35.85;20.67;;;;;;;;;;10415303;28;20069;-73
2023/09/16 04:18:31;;;;;;;34.72;21.27;;;;;;;;;;10428513;28;20508;-78
2023/09/16 04:23:31;;;;;;;48.38;24.60;;;;;;;;;;10425910;28;20024;-74
2023/09/16 04:28:32;;;;;;;35.07;20.97;;;;;;;;;;10426785;28;20020;-77
2023/09/16 04:33:33;;;;;;;39.25;24.17;;;;;;;;;;10431578;28;20017;-78
2023/09/16 04:38:34;;;;;;;39.03;23.45;;;;;;;;;;10425825;28;20029;-77
2023/09/16 04:43:34;;;;;;;40.37;23.47;;;;;;;;;;10393269;28;20457;-76
2023/09/16 04:48:37;;;;;;;49.50;25.90;;;;;;;;;;10410787;28;20378;-84
2023/09/16 04:53:37;;;;;;;43.08;24.65;;;;;;;;;;10437720;28;20155;-75
2023/09/16 04:58:40;;;;;;;47.88;26.20;;;;;;;;;;10406801;28;20017;-75
2023/09/16 05:03:40;;;;;;;39.70;24.98;;;;;;;;;;10408221;28;20063;-74
2023/09/16 05:08:46;;;;;;;44.97;26.15;;;;;;;;;;10440788;28;20056;-71
2023/09/16 05:13:50;;;;;;;49.33;26.83;;;;;;;;;;10453384;28;20128;-76
2023/09/16 05:18:50;;;;;;;43.35;26.20;;;;;;;;;;10435925;28;20033;-75
2023/09/16 05:23:54;;;;;;;44.92;26.17;;;;;;;;;;10432544;28;20071;-78
2023/09/16 05:28:56;;;;;;;43.53;24.92;;;;;;;;;;10455963;28;20185;-75
2023/09/16 05:33:59;;;;;;;42.50;24.73;;;;;;;;;;10465213;28;20401;-77
2023/09/16 05:39:01;;;;;;;42.10;26.02;;;;;;;;;;10415428;28;20485;-76
2023/09/16 05:44:02;;;;;;;44.78;27.35;;;;;;;;;;10420701;28;20033;-75
2023/09/16 05:49:09;;;;;;;47.03;25.17;;;;;;;;;;10406607;28;20025;-75
2023/09/16 05:54:16;;;;;;;42.57;25.37;;;;;;;;;;10412493;28;20029;-75
2023/09/16 05:59:17;;;;;;;43.38;25.52;;;;;;;;;;10430781;28;20025;-85
2023/09/16 06:04:18;;;;;;;47.80;27.42;;;;;;;;;;10404297;28;20033;-83
2023/09/16 06:09:18;;;;;;;48.40;25.23;;;;;;;;;;10441928;28;20422;-80
2023/09/16 06:14:18;;;;;;;38.23;24.53;;;;;;;;;;10423601;28;20063;-80
2023/09/16 06:19:19;;;;;;;53.57;27.73;;;;;;;;;;10435047;28;20239;-71
2023/09/16 06:24:19;;;;;;;41.60;25.57;;;;;;;;;;10438677;28;20100;-72
2023/09/16 06:29:20;;;;;;;45.30;27.48;;;;;;;;;;10436093;28;20117;-74
2023/09/16 06:34:21;;;;;;;53.25;28.35;;;;;;;;;;10421096;28;20029;-80
2023/09/16 06:39:24;;;;;;;40.72;26.10;;;;;;;;;;10428176;28;20025;-71
2023/09/16 06:44:24;;;;;;;51.65;29.58;;;;;;;;;;10433830;28;20024;-77
2023/09/16 06:49:29;;;;;;;61.42;33.13;;;;;;;;;;10448187;28;20032;-76
2023/09/16 06:54:31;;;;;;;52.70;30.13;;;;;;;;;;10448072;28;20095;-72
2023/09/16 06:59:31;;;;;;;50.63;31.23;;;;;;;;;;10422867;28;20036;-80
2023/09/16 07:04:36;;;;;;;51.08;30.35;;;;;;;;;;10420413;28;20560;-76
2023/09/16 07:09:36;;;;;;;47.80;30.67;;;;;;;;;;10410916;28;20422;-75
2023/09/16 07:14:38;;;;;;;53.77;32.27;;;;;;;;;;10424127;28;20049;-80
2023/09/16 07:19:39;;;;;;;53.35;29.38;;;;;;;;;;10437923;28;20037;-76
2023/09/16 07:24:40;;;;;;;50.60;29.33;;;;;;;;;;10417264;28;20533;-80
2023/09/16 07:29:41;;;;;;;40.87;26.80;;;;;;;;;;10402480;28;20094;-81
2023/09/16 07:34:41;;;;;;;51.25;29.60;;;;;;;;;;10433937;28;20112;-83
2023/09/16 07:39:45;;;;;;;40.85;27.90;;;;;;;;;;10409578;28;20021;-84
2023/09/16 07:44:45;;;;;;;51.65;29.77;;;;;;;;;;10426885;28;20949;-75
2023/09/16 07:49:48;;;;;;;46.08;28.50;;;;;;;;;;10403916;28;20041;-78
2023/09/16 07:54:48;;;;;;;47.67;28.08;;;;;;;;;;10412775;28;20033;-78
2023/09/16 07:59:49;;;;;;;54.25;29.13;;;;;;;;;;10411907;28;20464;-74
2023/09/16 08:04:51;;;;;;;54.78;30.75;;;;;;;;;;10418145;28;20033;-75
2023/09/16 08:09:51;;;;;;;52.83;32.53;;;;;;;;;;10405404;28;20056;-77
2023/09/16 08:14:51;;;;;;;53.85;32.05;;;;;;;;;;10386499;28;20184;-74
2023/09/16 08:19:53;;;;;;;52.33;30.53;;;;;;;;;;10384958;28;20033;-79
2023/09/16 08:25:06;;;;;;;55.95;31.13;;;;;;;;;;10395514;28;20486;-82
2023/09/16 08:30:12;;;;;;;45.10;29.35;;;;;;;;;;10394158;28;20041;-84
2023/09/16 08:35:12;;;;;;;43.65;27.67;;;;;;;;;;10378631;28;20721;-78
2023/09/16 08:40:12;;;;;;;45.97;29.63;;;;;;;;;;10394633;28;20024;-81
2023/09/16 08:45:18;;;;;;;46.08;29.15;;;;;;;;;;10369670;28;20096;-80
2023/09/16 08:50:22;;;;;;;43.80;28.50;;;;;;;;;;10392336;28;20057;-82
2023/09/16 08:55:24;;;;;;;38.25;25.75;;;;;;;;;;10387954;28;20045;-83
2023/09/16 09:00:24;;;;;;;42.15;24.58;;;;;;;;;;10387327;28;20587;-76
2023/09/16 09:05:25;;;;;;;36.78;24.20;;;;;;;;;;10387393;28;20097;-73
2023/09/16 09:10:26;;;;;;;43.63;23.33;;;;;;;;;;10385557;28;20037;-75
2023/09/16 09:15:26;;;;;;;21.67;16.33;;;;;;;;;;10385732;28;20140;-79
2023/09/16 09:20:27;;;;;;;17.10;13.13;;;;;;;;;;10381507;28;20024;-79
2023/09/16 09:25:29;;;;;;;21.88;13.98;;;;;;;;;;10386546;28;20029;-82
2023/09/16 09:30:31;;;;;;;19.55;13.07;;;;;;;;;;10390172;28;20436;-83
2023/09/16 09:35:31;;;;;;;17.90;11.75;;;;;;;;;;10393968;28;20026;-81
2023/09/16 09:40:32;;;;;;;22.27;12.70;;;;;;;;;;10364250;28;20033;-75
2023/09/16 09:45:35;;;;;;;18.87;11.73;;;;;;;;;;10385449;28;20026;-75
2023/09/16 09:50:37;;;;;;;14.90;9.00;;;;;;;;;;10391462;28;20112;-76
2023/09/16 09:55:39;;;;;;;13.05;7.15;;;;;;;;;;10383721;28;20473;-75
2023/09/16 10:00:50;;;;;;;8.57;7.00;;;;;;;;;;10388642;28;20041;-79
2023/09/16 10:05:51;;;;;;;14.35;8.35;;;;;;;;;;10392426;28;20429;-86
2023/09/16 10:10:52;;;;;;;285.27;264.07;;;;;;;;;;10385728;28;20036;-75
2023/09/16 10:15:55;;;;;;;734.88;674.35;;;;;;;;;;10415759;28;20118;-76
2023/09/16 10:20:56;;;;;;;917.13;841.00;;;;;;;;;;10412898;28;20067;-74
2023/09/16 10:25:57;;;;;;;327.90;301.10;;;;;;;;;;10402220;28;20037;-79
2023/09/16 10:30:58;;;;;;;595.28;543.97;;;;;;;;;;10408479;28;20096;-75
2023/09/16 10:35:58;;;;;;;1145.65;999.90;;;;;;;;;;10410333;28;20033;-77
2023/09/16 10:40:59;;;;;;;1146.07;999.90;;;;;;;;;;10412320;28;20040;-74
2023/09/16 10:46:01;;;;;;;1149.50;999.90;;;;;;;;;;10412539;28;20116;-77
2023/09/16 10:51:04;;;;;;;1011.83;921.65;;;;;;;;;;10408474;28;21730;-77
2023/09/16 10:56:08;;;;;;;7.35;5.72;;;;;;;;;;10423169;28;20036;-74
2023/09/16 11:01:08;;;;;;;11.70;6.00;;;;;;;;;;10425157;28;20035;-74
2023/09/16 11:06:09;;;;;;;213.80;196.95;;;;;;;;;;10403954;28;20485;-73
2023/09/16 11:11:10;;;;;;;967.33;885.50;;;;;;;;;;10408581;28;20528;-74
2023/09/16 11:16:11;;;;;;;1081.22;984.55;;;;;;;;;;10404628;28;20583;-77
2023/09/16 11:21:11;;;;;;;1095.78;996.05;;;;;;;;;;10406807;28;20033;-79
2023/09/16 11:26:16;;;;;;;898.40;818.92;;;;;;;;;;10420569;28;20477;-77
2023/09/16 11:31:17;;;;;;;936.83;859.00;;;;;;;;;;10409842;28;20053;-75
2023/09/16 11:36:18;;;;;;;1089.80;990.87;;;;;;;;;;10413508;28;20033;-75
2023/09/16 11:41:18;;;;;;;1085.03;986.20;;;;;;;;;;10410080;28;20025;-75
2023/09/16 11:46:19;;;;;;;12.75;8.75;;;;;;;;;;10411391;28;20080;-76
2023/09/16 11:51:23;;;;;;;10.30;7.57;;;;;;;;;;10412209;28;20031;-76
2023/09/16 11:56:26;;;;;;;12.18;7.35;;;;;;;;;;10411625;28;20122;-73
2023/09/16 12:01:32;;;;;;;977.13;899.28;;;;;;;;;;10412422;28;20017;-71
2023/09/16 12:06:34;;;;;;;755.35;684.55;;;;;;;;;;10400212;28;20029;-76
2023/09/16 12:11:36;;;;;;;14.88;8.32;;;;;;;;;;10431257;28;20032;-86
2023/09/16 12:16:38;;;;;;;17.00;9.35;;;;;;;;;;10422483;28;20126;-81
2023/09/16 12:21:45;;;;;;;653.38;595.10;;;;;;;;;;10396070;28;20055;-73
2023/09/16 12:26:47;;;;;;;9.95;6.93;;;;;;;;;;10409128;28;20033;-76
2023/09/16 12:31:47;;;;;;;12.73;8.10;;;;;;;;;;10406516;28;20033;-75
2023/09/16 12:36:50;;;;;;;14.30;7.33;;;;;;;;;;10410112;28;20102;-80
2023/09/16 12:41:53;;;;;;;8.40;6.55;;;;;;;;;;10419485;28;20051;-76
2023/09/16 12:46:53;;;;;;;13.35;6.47;;;;;;;;;;10403545;28;20141;-72
2023/09/16 12:51:54;;;;;;;8.60;6.35;;;;;;;;;;10420241;28;20028;-77
2023/09/16 12:56:54;;;;;;;10.90;6.50;;;;;;;;;;10408428;28;20025;-74
2023/09/16 13:01:57;;;;;;;7.28;6.00;;;;;;;;;;10417556;28;20013;-75
2023/09/16 13:06:59;;;;;;;8.75;6.20;;;;;;;;;;10415813;28;20023;-74
2023/09/16 13:12:03;;;;;;;10.10;6.82;;;;;;;;;;10406013;28;20637;-80
2023/09/16 13:17:04;;;;;;;12.30;6.30;;;;;;;;;;10424747;28;20132;-76
2023/09/16 13:22:09;;;;;;;15.73;6.93;;;;;;;;;;10409939;28;20021;-80
2023/09/16 13:27:15;;;;;;;9.35;6.10;;;;;;;;;;10414978;28;20028;-74
2023/09/16 13:32:15;;;;;;;8.25;6.22;;;;;;;;;;10406560;28;20028;-74
2023/09/16 13:37:15;;;;;;;13.40;5.90;;;;;;;;;;10408688;28;20417;-74
2023/09/16 13:42:16;;;;;;;10.13;6.28;;;;;;;;;;10406916;28;20346;-73
2023/09/16 13:47:16;;;;;;;9.00;6.05;;;;;;;;;;10404774;28;20025;-80
2023/09/16 13:52:16;;;;;;;10.40;6.97;;;;;;;;;;10414051;28;20059;-74
2023/09/16 13:57:16;;;;;;;8.75;6.07;;;;;;;;;;10428177;28;20029;-73
2023/09/16 14:02:17;;;;;;;12.10;5.80;;;;;;;;;;10413349;28;20024;-79
2023/09/16 14:07:17;;;;;;;11.63;6.27;;;;;;;;;;10411547;28;20020;-74
2023/09/16 14:12:17;;;;;;;9.33;5.87;;;;;;;;;;10407506;28;20079;-77
2023/09/16 14:17:18;;;;;;;12.70;6.03;;;;;;;;;;10390474;28;20045;-74
2023/09/16 14:22:18;;;;;;;8.68;5.97;;;;;;;;;;10388340;28;20029;-76
2023/09/16 14:27:18;;;;;;;6.85;6.13;;;;;;;;;;10387487;28;20049;-74
2023/09/16 14:32:19;;;;;;;9.57;5.70;;;;;;;;;;10369431;28;20026;-75
2023/09/16 14:37:19;;;;;;;9.38;6.50;;;;;;;;;;10386564;28;20027;-75
2023/09/16 14:42:20;;;;;;;12.13;7.07;;;;;;;;;;10384181;28;20021;-77
2023/09/16 14:47:21;;;;;;;12.38;6.53;;;;;;;;;;10390008;28;20029;-73
2023/09/16 14:52:22;;;;;;;7.65;5.97;;;;;;;;;;10381151;28;20030;-79
2023/09/16 14:57:25;;;;;;;10.35;6.47;;;;;;;;;;10366266;28;20020;-74
2023/09/16 15:02:26;;;;;;;7.93;6.35;;;;;;;;;;10380583;28;20021;-81
2023/09/16 15:07:26;;;;;;;16.95;6.45;;;;;;;;;;10385230;28;20515;-76
2023/09/16 15:12:27;;;;;;;9.50;5.75;;;;;;;;;;10379789;28;20028;-72
2023/09/16 15:17:28;;;;;;;9.07;6.97;;;;;;;;;;10382713;28;20041;-79
2023/09/16 15:22:29;;;;;;;7.70;6.53;;;;;;;;;;10380195;28;20092;-75
2023/09/16 15:27:30;;;;;;;10.25;6.60;;;;;;;;;;10385649;28;20429;-80
2023/09/16 15:32:30;;;;;;;10.13;6.90;;;;;;;;;;10394485;28;20029;-74
2023/09/16 15:37:31;;;;;;;13.68;7.45;;;;;;;;;;10388964;28;20025;-77
2023/09/16 15:42:31;;;;;;;12.18;7.70;;;;;;;;;;10376222;28;20034;-77
2023/09/16 15:47:32;;;;;;;24.27;18.38;;;;;;;;;;10379377;28;20025;-78
2023/09/16 15:52:32;;;;;;;761.70;699.97;;;;;;;;;;10381827;28;20037;-71
2023/09/16 15:57:33;;;;;;;946.00;876.92;;;;;;;;;;10369881;28;20026;-76
2023/09/16 16:02:36;;;;;;;1051.93;960.70;;;;;;;;;;10380741;28;20029;-72
2023/09/16 16:07:36;;;;;;;44.88;34.30;;;;;;;;;;10379972;28;20018;-74
2023/09/16 16:12:36;;;;;;;17.30;11.18;;;;;;;;;;10381833;28;20439;-73
2023/09/16 16:17:37;;;;;;;16.05;9.77;;;;;;;;;;10402022;28;20025;-80
2023/09/16 16:22:37;;;;;;;15.65;10.25;;;;;;;;;;10393445;28;20083;-74
2023/09/16 16:27:37;;;;;;;19.52;10.80;;;;;;;;;;10403553;28;20025;-73
2023/09/16 16:32:38;;;;;;;15.38;11.00;;;;;;;;;;10423414;28;20025;-76
2023/09/16 16:37:38;;;;;;;16.75;11.35;;;;;;;;;;10403173;28;20021;-76
2023/09/16 16:42:38;;;;;;;15.52;11.25;;;;;;;;;;10408044;28;20056;-75
2023/09/16 16:47:40;;;;;;;16.73;10.93;;;;;;;;;;10406865;28;20119;-78
2023/09/16 16:52:40;;;;;;;104.32;96.60;;;;;;;;;;10410526;28;20107;-76
2023/09/16 16:57:42;;;;;;;877.00;813.38;;;;;;;;;;10410806;28;20033;-80
2023/09/16 17:02:42;;;;;;;22.30;11.75;;;;;;;;;;10415970;28;20163;-83
2023/09/16 17:07:44;;;;;;;24.30;13.23;;;;;;;;;;10411914;28;20460;-78
2023/09/16 17:12:44;;;;;;;22.52;11.35;;;;;;;;;;10400370;28;20031;-77
2023/09/16 17:17:45;;;;;;;20.42;13.65;;;;;;;;;;10399488;28;20043;-76
2023/09/16 17:22:45;;;;;;;18.55;12.32;;;;;;;;;;10419085;28;20025;-82
2023/09/16 17:27:45;;;;;;;23.80;13.15;;;;;;;;;;10410692;28;20026;-76
2023/09/16 17:32:46;;;;;;;762.10;696.47;;;;;;;;;;10419714;28;20107;-74
2023/09/16 17:37:48;;;;;;;1011.60;919.42;;;;;;;;;;10416686;28;20033;-81
2023/09/16 17:42:49;;;;;;;1004.35;921.22;;;;;;;;;;10411122;28;20029;-80
2023/09/16 17:47:51;;;;;;;20.58;11.15;;;;;;;;;;10414171;28;20039;-79
2023/09/16 17:52:52;;;;;;;23.27;11.82;;;;;;;;;;10418426;28;20017;-77
2023/09/16 17:57:52;;;;;;;17.77;11.35;;;;;;;;;;10410707;28;20051;-79
2023/09/16 18:02:52;;;;;;;16.95;10.90;;;;;;;;;;10421946;28;20102;-76
2023/09/16 18:07:53;;;;;;;23.75;12.43;;;;;;;;;;10410823;28;20029;-75
2023/09/16 18:12:53;;;;;;;20.63;12.53;;;;;;;;;;10404997;28;20072;-77
2023/09/16 18:17:55;;;;;;;22.20;11.10;;;;;;;;;;10407597;28;20661;-77
2023/09/16 18:22:56;;;;;;;15.68;11.68;;;;;;;;;;10411815;28;20505;-79
2023/09/16 18:27:57;;;;;;;22.37;12.70;;;;;;;;;;10411777;28;20017;-82
2023/09/16 18:32:58;;;;;;;20.75;12.27;;;;;;;;;;10413319;28;20481;-77
2023/09/16 18:37:58;;;;;;;22.17;14.37;;;;;;;;;;10405730;28;20079;-77
2023/09/16 18:43:00;;;;;;;24.52;14.70;;;;;;;;;;10409964;28;20036;-77
2023/09/16 18:48:00;;;;;;;21.02;13.63;;;;;;;;;;10406600;28;20453;-73
2023/09/16 18:53:01;;;;;;;24.50;14.05;;;;;;;;;;10428104;28;20022;-75
2023/09/16 18:58:02;;;;;;;19.83;13.35;;;;;;;;;;10416474;28;20029;-81
2023/09/16 19:03:03;;;;;;;18.13;12.32;;;;;;;;;;10412406;28;20552;-75
2023/09/16 19:08:03;;;;;;;27.35;14.77;;;;;;;;;;10414660;28;20121;-77
2023/09/16 19:13:04;;;;;;;21.07;13.83;;;;;;;;;;10419604;28;20139;-78
2023/09/16 19:18:05;;;;;;;25.40;15.20;;;;;;;;;;10391291;28;20295;-77
2023/09/16 19:23:09;;;;;;;22.42;15.23;;;;;;;;;;10426448;28;20432;-84
2023/09/16 19:28:10;;;;;;;22.35;16.30;;;;;;;;;;10410067;28;20140;-76
2023/09/16 19:33:10;;;;;;;24.67;15.15;;;;;;;;;;10404989;28;20037;-73
2023/09/16 19:38:11;;;;;;;25.52;16.05;;;;;;;;;;10406249;28;20028;-77
2023/09/16 19:43:11;;;;;;;21.48;15.05;;;;;;;;;;10409547;28;20079;-76
2023/09/16 19:48:11;;;;;;;95.88;88.97;;;;;;;;;;10406891;28;20417;-74
2023/09/16 19:53:12;;;;;;;978.20;889.08;;;;;;;;;;10413647;28;20021;-78
2023/09/16 19:58:13;;;;;;;602.47;556.77;;;;;;;;;;10415015;28;20028;-80
2023/09/16 20:03:20;;;;;;;840.65;761.60;;;;;;;;;;10407444;28;20074;-78
2023/09/16 20:08:20;;;;;;;944.50;852.10;;;;;;;;;;10411843;28;20020;-80
2023/09/16 20:13:22;;;;;;;967.13;873.38;;;;;;;;;;10418327;28;20056;-80
2023/09/16 20:18:24;;;;;;;899.05;814.30;;;;;;;;;;10408198;28;20017;-81
2023/09/16 20:23:30;;;;;;;27.33;16.70;;;;;;;;;;10409634;28;20064;-81
2023/09/16 20:28:31;;;;;;;582.70;532.50;;;;;;;;;;10406625;28;20025;-76
2023/09/16 20:33:31;;;;;;;28.42;17.38;;;;;;;;;;10411762;28;20029;-82
2023/09/16 20:38:31;;;;;;;25.77;16.35;;;;;;;;;;10411259;28;20029;-82
2023/09/16 20:43:32;;;;;;;23.80;16.47;;;;;;;;;;10400779;28;20045;-79
2023/09/16 20:48:33;;;;;;;30.23;15.57;;;;;;;;;;10385132;28;20083;-79
2023/09/16 20:53:33;;;;;;;23.40;15.02;;;;;;;;;;10410862;28;20096;-77
2023/09/16 20:58:38;;;;;;;22.10;16.30;;;;;;;;;;10408102;28;20079;-77
2023/09/16 21:03:39;;;;;;;24.42;16.52;;;;;;;;;;10420576;28;20066;-75
2023/09/16 21:08:45;;;;;;;23.10;15.40;;;;;;;;;;10398543;28;20579;-83
2023/09/16 21:13:52;;;;;;;25.63;13.80;;;;;;;;;;10418023;28;20057;-80
2023/09/16 21:18:55;;;;;;;25.63;13.75;;;;;;;;;;10414557;28;20032;-77
2023/09/16 21:23:56;;;;;;;20.75;12.52;;;;;;;;;;10400871;28;20033;-81
2023/09/16 21:28:56;;;;;;;15.88;11.40;;;;;;;;;;10395088;28;20029;-73
2023/09/16 21:33:57;;;;;;;18.52;12.90;;;;;;;;;;10413185;28;20465;-81
2023/09/16 21:38:58;;;;;;;20.92;13.02;;;;;;;;;;10393262;28;20190;-74
2023/09/16 21:43:58;;;;;;;20.27;11.93;;;;;;;;;;10401284;28;20033;-76
2023/09/16 21:48:58;;;;;;;21.17;12.93;;;;;;;;;;10418156;28;20016;-74
2023/09/16 21:54:00;;;;;;;18.83;12.20;;;;;;;;;;10409681;28;20029;-76
2023/09/16 21:59:00;;;;;;;21.10;13.23;;;;;;;;;;10430497;28;20029;-75
2023/09/16 22:04:01;;;;;;;19.30;12.32;;;;;;;;;;10399304;28;20045;-74
2023/09/16 22:09:03;;;;;;;20.10;12.25;;;;;;;;;;10403364;28;20112;-74
2023/09/16 22:14:04;;;;;;;19.50;12.38;;;;;;;;;;10416442;28;20623;-80
2023/09/16 22:19:04;;;;;;;17.38;10.95;;;;;;;;;;10410524;28;20039;-75
2023/09/16 22:24:05;;;;;;;21.35;11.43;;;;;;;;;;10410181;28;20031;-74
2023/09/16 22:29:05;;;;;;;17.50;11.43;;;;;;;;;;10409034;28;20020;-77
2023/09/16 22:34:05;;;;;;;22.80;10.68;;;;;;;;;;10408821;28;20272;-74
2023/09/16 22:39:08;;;;;;;16.00;9.87;;;;;;;;;;10417036;28;20033;-81
2023/09/16 22:44:08;;;;;;;15.85;10.60;;;;;;;;;;10410456;28;20036;-74
2023/09/16 22:49:08;;;;;;;20.83;10.77;;;;;;;;;;10410944;28;20540;-71
2023/09/16 22:54:09;;;;;;;17.92;10.65;;;;;;;;;;10401947;28;20095;-75
2023/09/16 22:59:10;;;;;;;21.80;11.85;;;;;;;;;;10420897;28;20397;-77
2023/09/16 23:04:10;;;;;;;19.77;11.25;;;;;;;;;;10408134;28;20501;-77
2023/09/16 23:09:11;;;;;;;166.98;155.77;;;;;;;;;;10410727;28;20029;-78
2023/09/16 23:14:11;;;;;;;907.97;835.58;;;;;;;;;;10409889;28;20064;-82
2023/09/16 23:19:13;;;;;;;832.95;755.83;;;;;;;;;;10406485;28;20037;-83
2023/09/16 23:24:13;;;;;;;943.63;851.10;;;;;;;;;;10385184;28;20413;-75
2023/09/16 23:29:13;;;;;;;927.60;836.13;;;;;;;;;;10413589;28;20013;-76
2023/09/16 23:34:15;;;;;;;917.90;826.92;;;;;;;;;;10416527;28;20025;-81
2023/09/16 23:39:15;;;;;;;12.27;8.55;;;;;;;;;;10422845;28;20104;-73
2023/09/16 23:44:15;;;;;;;13.67;7.67;;;;;;;;;;10406419;28;20033;-73
2023/09/16 23:49:16;;;;;;;10.88;6.68;;;;;;;;;;10406858;28;20049;-75
2023/09/16 23:54:18;;;;;;;10.25;6.10;;;;;;;;;;10402552;28;20025;-79
2023/09/16 23:59:42;;;;;;;8.57;5.68;;;;;;;;;;10418839;28;20045;-85
